createdAt,value
2018-05-01T00:01:14.119Z,95.00
2018-05-01T00:05:16.658Z,95.30
2018-05-01T00:09:19.170Z,96.00
2018-05-01T00:13:21.824Z,95.30
2018-05-01T00:17:24.330Z,95.70
2018-05-01T00:21:26.871Z,95.40
2018-05-01T00:25:29.455Z,95.30
2018-05-01T00:29:33.795Z,96.30
2018-05-01T00:33:36.319Z,96.20
2018-05-01T00:37:39.630Z,95.90
2018-05-01T00:41:42.941Z,96.60
2018-05-01T00:45:45.483Z,96.60
2018-05-01T00:50:04.863Z,95.90
2018-05-01T00:54:08.173Z,96.30
2018-05-01T00:58:10.678Z,95.90
2018-05-01T01:02:13.222Z,97.10
2018-05-01T01:06:15.751Z,96.50
2018-05-01T01:10:18.287Z,96.40
2018-05-01T01:14:21.608Z,96.90
2018-05-01T01:18:24.271Z,96.90
2018-05-01T01:22:26.774Z,97.20
2018-05-01T01:26:29.387Z,96.90
2018-05-01T01:30:31.905Z,97.10
2018-05-01T01:34:34.442Z,97.00
2018-05-01T01:38:36.465Z,97.30
2018-05-01T01:42:39.578Z,97.20
2018-05-01T01:46:42.376Z,97.60
2018-05-01T01:51:09.879Z,97.50
2018-05-01T01:55:12.671Z,97.60
2018-05-01T01:59:14.810Z,97.50
2018-05-01T02:03:16.895Z,97.50
2018-05-01T02:07:23.088Z,97.20
2018-05-01T02:11:25.882Z,97.70
2018-05-01T02:15:28.789Z,98.20
2018-05-01T02:19:30.818Z,98.20
2018-05-01T02:23:32.890Z,98.10
2018-05-01T02:27:34.963Z,97.10
2018-05-01T02:31:37.009Z,97.70
2018-05-01T02:35:39.048Z,97.40
2018-05-01T02:39:41.100Z,98.20
2018-05-01T02:43:43.130Z,98.40
2018-05-01T02:47:45.561Z,97.70
2018-05-01T02:51:48.359Z,98.20
2018-05-01T02:55:50.436Z,97.90
2018-05-01T02:59:55.903Z,96.80
2018-05-01T03:03:57.959Z,97.40
2018-05-01T03:07:59.990Z,97.40
2018-05-01T03:12:02.040Z,97.60
2018-05-01T03:16:04.071Z,97.80
2018-05-01T03:20:07.144Z,98.40
2018-05-01T03:24:09.175Z,97.90
2018-05-01T03:28:11.523Z,99.30
2018-05-01T03:32:22.539Z,98.90
2018-05-01T03:36:25.350Z,98.50
2018-05-01T03:40:28.150Z,98.30
2018-05-01T03:44:31.083Z,98.50
2018-05-01T03:48:33.131Z,98.50
2018-05-01T03:52:35.266Z,98.30
2018-05-01T03:56:38.049Z,98.80
2018-05-01T04:00:40.192Z,98.80
2018-05-01T04:04:42.215Z,98.30
2018-05-01T04:08:44.265Z,99.10
2018-05-01T04:12:46.297Z,98.80
2018-05-01T04:16:48.356Z,98.90
2018-05-01T04:20:50.424Z,99.10
2018-05-01T04:24:53.539Z,99.70
2018-05-01T04:28:55.583Z,99.30
2018-05-01T04:32:57.643Z,99.00
2018-05-01T04:37:00.431Z,98.70
2018-05-01T04:41:02.824Z,98.70
2018-05-01T04:45:04.851Z,99.10
2018-05-01T04:49:14.146Z,99.10
2018-05-01T04:53:16.606Z,99.10
2018-05-01T04:57:18.694Z,99.00
2018-05-01T05:01:20.799Z,99.90
2018-05-01T05:05:23.615Z,99.00
2018-05-01T05:09:25.691Z,98.80
2018-05-01T05:13:27.736Z,99.10
2018-05-01T05:17:29.762Z,98.30
2018-05-01T05:21:31.829Z,98.60
2018-05-01T05:25:34.793Z,98.70
2018-05-01T05:29:36.998Z,99.00
2018-05-01T05:33:39.824Z,98.20
2018-05-01T05:37:57.579Z,98.40
2018-05-01T05:42:00.367Z,98.60
2018-05-01T05:46:02.811Z,98.50
2018-05-01T05:50:04.838Z,98.00
2018-05-01T05:54:07.291Z,98.60
2018-05-01T05:58:10.074Z,97.90
2018-05-01T06:02:12.495Z,97.90
2018-05-01T06:06:14.519Z,97.60
2018-05-01T06:10:16.907Z,97.70
2018-05-01T06:14:23.262Z,97.60
2018-05-01T06:18:25.334Z,97.60
2018-05-01T06:22:27.371Z,97.70
2018-05-01T06:26:36.266Z,98.30
2018-05-01T06:30:38.313Z,96.90
2018-05-01T06:34:40.452Z,96.20
2018-05-01T06:38:50.468Z,96.60
2018-05-01T06:42:52.530Z,95.60
2018-05-01T06:46:54.634Z,95.60
2018-05-01T06:50:56.774Z,95.80
2018-05-01T06:55:03.471Z,94.80
2018-05-01T06:59:05.835Z,95.00
2018-05-01T07:03:07.866Z,95.30
2018-05-01T07:07:09.919Z,94.80
2018-05-01T07:11:15.654Z,94.00
2018-05-01T07:15:17.725Z,93.00
2018-05-01T07:19:21.823Z,90.60
2018-05-01T07:23:24.646Z,84.00
2018-05-01T07:27:26.719Z,83.90
2018-05-01T07:31:39.067Z,88.50
2018-05-01T07:35:41.098Z,86.80
2018-05-01T07:39:43.166Z,89.00
2018-05-01T07:43:45.191Z,90.20
2018-05-01T07:47:47.255Z,84.20
2018-05-01T07:51:51.226Z,84.00
2018-05-01T07:55:58.591Z,82.90
2018-05-01T08:00:03.333Z,72.90
2018-05-01T08:04:05.406Z,73.00
2018-05-01T08:08:07.434Z,66.80
2018-05-01T08:12:11.216Z,59.90
2018-05-01T08:16:17.022Z,60.00
2018-05-01T08:20:19.094Z,57.10
2018-05-01T08:24:21.211Z,55.50
2018-05-01T08:28:23.960Z,56.70
2018-05-01T08:32:31.334Z,57.40
2018-05-01T08:36:33.391Z,57.40
2018-05-01T08:40:35.426Z,55.30
2018-05-01T08:44:38.477Z,59.30
2018-05-01T08:48:40.508Z,60.90
2018-05-01T08:52:47.057Z,53.60
2018-05-01T08:56:49.854Z,53.00
2018-05-01T09:00:51.908Z,53.00
2018-05-01T09:04:53.940Z,48.60
2018-05-01T09:08:55.996Z,52.30
2018-05-01T09:12:59.525Z,49.70
2018-05-01T09:17:15.319Z,49.60
2018-05-01T09:21:17.351Z,49.00
2018-05-01T09:25:19.416Z,50.70
2018-05-01T09:29:21.456Z,53.10
2018-05-01T09:33:23.525Z,62.90
2018-05-01T09:37:34.372Z,55.60
2018-05-01T09:41:36.679Z,55.80
2018-05-01T09:45:39.474Z,58.00
2018-05-01T09:49:41.535Z,58.20
2018-05-01T09:53:44.051Z,53.80
2018-05-01T09:57:47.626Z,53.00
2018-05-01T10:01:50.978Z,59.70
2018-05-01T10:05:53.559Z,60.80
2018-05-01T10:09:56.836Z,60.90
2018-05-01T10:13:59.496Z,60.80
2018-05-01T10:18:02.059Z,56.90
2018-05-01T10:22:04.722Z,55.50
2018-05-01T10:26:12.288Z,59.80
2018-05-01T10:30:14.875Z,57.10
2018-05-01T10:34:28.018Z,55.40
2018-05-01T10:38:48.869Z,56.20
2018-05-01T10:42:51.394Z,56.90
2018-05-01T10:47:03.806Z,55.90
2018-05-01T10:51:07.186Z,58.00
2018-05-01T10:55:12.526Z,53.90
2018-05-01T10:59:16.043Z,53.80
2018-05-01T11:03:18.858Z,57.90
2018-05-01T11:07:27.316Z,55.40
2018-05-01T11:11:29.987Z,53.90
2018-05-01T11:15:32.562Z,51.30
2018-05-01T11:19:39.680Z,63.10
2018-05-01T11:23:42.959Z,58.60
2018-05-01T11:27:45.505Z,58.70
2018-05-01T11:31:48.979Z,55.40
2018-05-01T11:35:51.523Z,55.30
2018-05-01T11:39:54.055Z,62.00
2018-05-01T11:43:56.967Z,53.80
2018-05-01T11:48:03.434Z,57.10
2018-05-01T11:52:11.077Z,57.20
2018-05-01T11:56:14.354Z,55.60
2018-05-01T12:00:17.023Z,55.90
2018-05-01T12:04:20.302Z,59.00
2018-05-01T12:08:23.530Z,59.00
2018-05-01T12:12:26.050Z,63.90
2018-05-01T12:16:29.371Z,61.10
2018-05-01T12:20:32.858Z,61.10
2018-05-01T12:24:35.424Z,60.70
2018-05-01T12:28:41.867Z,60.70
2018-05-01T12:32:49.757Z,60.60
2018-05-01T12:37:03.714Z,60.50
2018-05-01T12:41:06.378Z,60.50
2018-05-01T12:45:08.998Z,60.60
2018-05-01T12:49:11.646Z,58.70
2018-05-01T12:53:15.851Z,60.00
2018-05-01T12:57:18.415Z,59.90
2018-05-01T13:01:28.534Z,65.10
2018-05-01T13:05:31.891Z,59.80
2018-05-01T13:09:44.699Z,59.70
2018-05-01T13:13:49.197Z,57.70
2018-05-01T13:17:52.478Z,61.00
2018-05-01T13:21:55.974Z,61.00
2018-05-01T13:25:58.494Z,61.70
2018-05-01T13:30:02.452Z,60.00
2018-05-01T13:34:04.975Z,64.70
2018-05-01T13:38:07.514Z,60.30
2018-05-01T13:42:10.859Z,62.30
2018-05-01T13:46:13.401Z,62.00
2018-05-01T13:50:23.542Z,62.50
2018-05-01T13:54:30.308Z,60.50
2018-05-01T13:58:32.844Z,60.40
2018-05-01T14:02:48.563Z,63.90
2018-05-01T14:06:51.354Z,63.90
2018-05-01T14:10:59.051Z,63.90
2018-05-01T14:15:04.199Z,62.40
2018-05-01T14:19:06.843Z,62.30
2018-05-01T14:23:11.282Z,65.90
2018-05-01T14:27:13.849Z,67.00
2018-05-01T14:31:19.750Z,66.90
2018-05-01T14:35:22.385Z,68.00
2018-05-01T14:39:24.957Z,68.30
2018-05-01T14:43:27.626Z,68.30
2018-05-01T14:47:30.926Z,66.10
2018-05-01T14:51:33.483Z,66.00
2018-05-01T14:55:36.003Z,69.00
2018-05-01T14:59:38.557Z,72.60
2018-05-01T15:03:41.085Z,73.40
2018-05-01T15:07:43.639Z,66.70
2018-05-01T15:11:46.170Z,65.50
2018-05-01T15:15:49.683Z,64.20
2018-05-01T15:19:52.199Z,69.90
2018-05-01T15:23:54.737Z,70.50
2018-05-01T15:27:57.258Z,63.30
2018-05-01T15:32:00.174Z,66.20
2018-05-01T15:36:02.691Z,64.90
2018-05-01T15:40:05.251Z,61.60
2018-05-01T15:48:42.024Z,66.30
2018-05-01T15:52:44.555Z,66.30
2018-05-01T15:56:50.233Z,59.60
2018-05-01T16:00:56.536Z,59.60
2018-05-01T16:05:03.059Z,64.10
2018-05-01T16:09:05.571Z,63.90
2018-05-01T16:13:08.134Z,59.40
2018-05-01T16:17:14.646Z,63.10
2018-05-01T16:21:17.483Z,64.50
2018-05-01T16:25:20.945Z,62.30
2018-05-01T16:29:23.500Z,68.40
2018-05-01T16:33:26.019Z,60.70
2018-05-01T16:37:28.606Z,65.00
2018-05-01T16:41:31.189Z,62.10
2018-05-01T16:45:34.499Z,62.90
2018-05-01T16:49:40.731Z,61.70
2018-05-01T16:53:43.570Z,61.70
2018-05-01T16:57:46.082Z,62.50
2018-05-01T17:01:48.911Z,65.20
2018-05-01T17:05:52.197Z,61.70
2018-05-01T17:09:54.737Z,61.70
2018-05-01T17:13:59.951Z,63.20
2018-05-01T17:18:02.504Z,63.50
2018-05-01T17:22:07.781Z,66.10
2018-05-01T17:26:10.295Z,65.80
2018-05-01T17:30:13.768Z,67.10
2018-05-01T17:34:16.319Z,64.50
2018-05-01T17:38:20.627Z,68.10
2018-05-01T17:42:23.219Z,68.00
2018-05-01T17:46:25.734Z,67.80
2018-05-01T17:50:32.796Z,70.90
2018-05-01T17:54:35.437Z,67.90
2018-05-01T17:58:39.964Z,68.40
2018-05-01T18:02:49.655Z,69.40
2018-05-01T18:06:53.340Z,69.00
2018-05-01T18:10:55.860Z,71.40
2018-05-01T18:14:59.188Z,73.20
2018-05-01T18:19:02.503Z,75.20
2018-05-01T18:23:05.039Z,75.10
2018-05-01T18:27:07.572Z,76.30
2018-05-01T18:31:10.459Z,77.20
2018-05-01T18:35:20.026Z,77.30
2018-05-01T18:39:22.599Z,78.30
2018-05-01T18:43:25.926Z,81.90
2018-05-01T18:47:33.855Z,82.00
2018-05-01T18:51:37.864Z,83.00
2018-05-01T18:55:46.746Z,83.00
2018-05-01T18:59:50.039Z,89.30
2018-05-01T19:03:52.659Z,89.30
2018-05-01T19:07:56.192Z,90.40
2018-05-01T19:12:12.758Z,91.20
2018-05-01T19:16:22.513Z,93.00
2018-05-01T19:20:25.091Z,93.00
2018-05-01T19:24:27.616Z,93.30
2018-05-01T19:28:31.206Z,92.80
2018-05-01T19:32:33.734Z,92.80
2018-05-01T19:41:04.576Z,93.80
2018-05-01T19:45:19.885Z,94.10
2018-05-01T19:49:23.166Z,94.30
2018-05-01T19:53:26.635Z,94.30
2018-05-01T19:57:45.462Z,94.70
2018-05-01T20:01:48.778Z,95.00
2018-05-01T20:05:51.343Z,95.00
2018-05-01T20:09:54.077Z,95.20
2018-05-01T20:13:57.254Z,95.90
2018-05-01T20:18:00.804Z,95.80
2018-05-01T20:22:03.335Z,96.10
2018-05-01T20:26:06.749Z,96.30
2018-05-01T20:30:10.036Z,96.20
2018-05-01T20:34:12.587Z,96.20
2018-05-01T20:38:15.871Z,96.30
2018-05-01T20:42:18.535Z,96.30
2018-05-01T20:46:37.587Z,96.00
2018-05-01T20:50:43.654Z,95.80
2018-05-01T20:54:46.172Z,96.50
2018-05-01T20:58:48.719Z,95.40
2018-05-01T21:03:05.020Z,95.70
2018-05-01T21:07:07.568Z,96.70
2018-05-01T21:11:10.367Z,97.10
2018-05-01T21:15:13.234Z,97.00
2018-05-01T21:19:15.746Z,96.30
2018-05-01T21:23:23.780Z,97.30
2018-05-01T21:27:26.348Z,97.50
2018-05-01T21:31:30.967Z,96.60
2018-05-01T21:35:34.248Z,97.60
2018-05-01T21:39:36.880Z,97.50
2018-05-01T21:43:40.371Z,97.90
2018-05-01T21:47:43.144Z,98.00
2018-05-01T21:51:46.419Z,97.70
2018-05-01T21:55:48.968Z,97.70
2018-05-01T21:59:52.255Z,98.00
2018-05-01T22:03:54.812Z,97.90
2018-05-01T22:07:57.324Z,97.90
2018-05-01T22:11:59.878Z,97.40
2018-05-01T22:16:06.147Z,97.80
2018-05-01T22:20:08.695Z,98.30
2018-05-01T22:24:11.202Z,98.10
2018-05-01T22:28:14.232Z,98.50
2018-05-01T22:32:17.511Z,99.20
2018-05-01T22:36:20.114Z,99.10
2018-05-01T22:40:22.623Z,99.50
2018-05-01T22:44:26.267Z,99.40
2018-05-01T22:48:28.790Z,99.80
2018-05-01T22:52:31.555Z,99.90
2018-05-01T22:56:34.067Z,99.00
2018-05-01T23:00:36.700Z,98.90
2018-05-01T23:04:39.220Z,98.80
2018-05-01T23:08:41.773Z,98.90
2018-05-01T23:12:44.286Z,99.50
2018-05-01T23:16:46.838Z,99.90
2018-05-01T23:20:49.349Z,99.70
2018-05-01T23:24:52.887Z,99.40
2018-05-01T23:28:55.402Z,99.40
2018-05-01T23:32:57.973Z,99.30
2018-05-01T23:37:00.480Z,99.90
2018-05-01T23:41:03.027Z,99.40
2018-05-01T23:45:05.555Z,99.50
2018-05-01T23:49:08.128Z,99.30
2018-05-01T23:53:10.646Z,99.30
2018-05-01T23:57:13.186Z,99.50
